Terminal Aerodrome Forecast
Issued by NWS Memphis, TN

Home | Current Version | Previous Version | Text Only | Print | Product List | Glossary On
Versions: 1 2 3 4 5 6 7 8 9 10 11 12 13
000
FTUS44 KMEG 211726
TAFJBR
TAF
KJBR 211726Z 2118/2218 09008KT P6SM OVC015
      TEMPO 2118/2121 -RA
     FM220000 13005KT P6SM OVC050
     FM221500 18010KT P6SM OVC050=

USA.gov is the U.S. government's official web portal to all federal, state and local government web resources and services.